createdAt,value
2022-09-25T06:14:52.242Z,100.00
2022-09-25T06:24:51.273Z,100.00
2022-09-25T06:34:51.187Z,100.00
2022-09-25T06:44:51.310Z,100.00
2022-09-25T06:54:51.201Z,100.00
2022-09-25T07:04:51.184Z,100.00
2022-09-25T07:14:51.240Z,100.00
2022-09-25T07:24:51.191Z,100.00
2022-09-25T07:34:51.371Z,100.00
2022-09-25T07:44:51.637Z,100.00
2022-09-25T07:54:51.242Z,100.00
2022-09-25T08:04:51.297Z,100.00
2022-09-25T08:14:51.254Z,100.00
2022-09-25T08:24:51.231Z,100.00
2022-09-25T08:34:51.411Z,100.00
2022-09-25T08:45:09.382Z,100.00
2022-09-25T08:54:54.132Z,100.00
2022-09-25T09:04:51.604Z,100.00
2022-09-25T09:14:51.579Z,100.00
2022-09-25T09:24:51.844Z,100.00
2022-09-25T09:35:05.861Z,100.00
2022-09-25T09:44:51.674Z,100.00
2022-09-25T09:54:51.542Z,100.00
2022-09-25T10:04:51.578Z,100.00
2022-09-25T10:14:52.525Z,100.00
2022-09-25T10:24:51.788Z,100.00
2022-09-25T10:34:51.607Z,100.00
2022-09-25T10:44:55.654Z,100.00
2022-09-25T10:54:51.556Z,100.00
2022-09-25T11:04:51.541Z,100.00
2022-09-25T11:14:51.586Z,100.00
2022-09-25T11:24:51.623Z,100.00
2022-09-25T11:34:51.549Z,100.00
2022-09-25T11:44:51.566Z,100.00
2022-09-25T11:54:51.658Z,100.00
2022-09-25T12:04:51.683Z,100.00
2022-09-25T12:14:51.572Z,100.00
2022-09-25T12:24:51.722Z,100.00
2022-09-25T12:34:51.627Z,100.00
2022-09-25T12:44:51.747Z,100.00
2022-09-25T12:54:51.701Z,100.00
2022-09-25T13:04:51.747Z,100.00
2022-09-25T13:14:51.720Z,100.00
2022-09-25T13:24:51.630Z,100.00
2022-09-25T13:34:51.755Z,100.00
2022-09-25T13:44:51.719Z,100.00
2022-09-25T13:54:51.881Z,100.00
2022-09-25T14:04:51.880Z,100.00
2022-09-25T14:14:51.860Z,91.87
2022-09-25T14:24:51.893Z,89.62
2022-09-25T14:34:51.737Z,92.42
2022-09-25T14:44:51.799Z,96.87
2022-09-25T14:54:51.784Z,99.38
2022-09-25T15:04:52.005Z,100.00
2022-09-25T15:14:51.897Z,97.09
2022-09-25T15:24:51.949Z,97.00
2022-09-25T15:34:51.841Z,98.43
2022-09-25T15:44:52.047Z,99.28
2022-09-25T15:54:51.929Z,100.00
2022-09-25T16:04:51.948Z,100.00
2022-09-25T16:14:51.979Z,100.00
2022-09-25T16:24:52.156Z,100.00
2022-09-25T16:34:51.821Z,100.00
2022-09-25T16:44:51.886Z,100.00
2022-09-25T16:54:51.988Z,100.00
2022-09-25T17:04:52.081Z,100.00
2022-09-25T17:14:52.009Z,100.00
2022-09-25T17:24:52.081Z,100.00
2022-09-25T17:34:51.968Z,100.00
2022-09-25T17:44:52.041Z,100.00
2022-09-25T17:54:52.046Z,100.00
2022-09-25T18:04:52.141Z,100.00
2022-09-25T18:14:52.038Z,100.00
2022-09-25T18:24:52.145Z,100.00
2022-09-25T18:34:52.294Z,100.00
2022-09-25T18:44:52.233Z,100.00
2022-09-25T18:54:52.443Z,100.00
2022-09-25T19:04:52.607Z,100.00
2022-09-25T19:14:52.726Z,100.00
